sensor_id;sensor_type;location;lat;lon;timestamp;P1;durP1;ratioP1;P2;durP2;ratioP2
5953;SDS011;3002;42.642;24.812;2022-11-14T00:00:39;5.73;;;2.60;;
5953;SDS011;3002;42.642;24.812;2022-11-14T00:03:06;7.70;;;2.80;;
5953;SDS011;3002;42.642;24.812;2022-11-14T00:05:37;5.87;;;2.40;;
5953;SDS011;3002;42.642;24.812;2022-11-14T00:08:04;4.60;;;1.90;;
5953;SDS011;3002;42.642;24.812;2022-11-14T00:10:30;6.30;;;2.17;;
5953;SDS011;3002;42.642;24.812;2022-11-14T00:12:55;7.53;;;2.47;;
5953;SDS011;3002;42.642;24.812;2022-11-14T00:15:20;7.87;;;3.00;;
5953;SDS011;3002;42.642;24.812;2022-11-14T00:17:46;8.07;;;2.50;;
5953;SDS011;3002;42.642;24.812;2022-11-14T00:20:11;11.10;;;2.73;;
5953;SDS011;3002;42.642;24.812;2022-11-14T00:22:37;7.63;;;2.27;;
5953;SDS011;3002;42.642;24.812;2022-11-14T00:25:03;6.57;;;2.10;;
5953;SDS011;3002;42.642;24.812;2022-11-14T00:27:28;11.23;;;3.27;;
5953;SDS011;3002;42.642;24.812;2022-11-14T00:29:54;5.33;;;2.03;;
5953;SDS011;3002;42.642;24.812;2022-11-14T00:32:19;6.43;;;2.33;;
5953;SDS011;3002;42.642;24.812;2022-11-14T00:34:46;6.80;;;2.60;;
5953;SDS011;3002;42.642;24.812;2022-11-14T00:37:12;6.47;;;2.08;;
5953;SDS011;3002;42.642;24.812;2022-11-14T00:39:38;8.87;;;3.10;;
5953;SDS011;3002;42.642;24.812;2022-11-14T00:42:03;10.40;;;2.83;;
5953;SDS011;3002;42.642;24.812;2022-11-14T00:44:29;6.67;;;2.20;;
5953;SDS011;3002;42.642;24.812;2022-11-14T00:46:54;5.00;;;2.10;;
5953;SDS011;3002;42.642;24.812;2022-11-14T00:49:20;5.90;;;2.13;;
5953;SDS011;3002;42.642;24.812;2022-11-14T00:51:45;3.80;;;1.60;;
5953;SDS011;3002;42.642;24.812;2022-11-14T00:54:10;4.30;;;1.50;;
5953;SDS011;3002;42.642;24.812;2022-11-14T00:56:36;6.50;;;2.73;;
5953;SDS011;3002;42.642;24.812;2022-11-14T00:59:02;7.10;;;2.33;;
5953;SDS011;3002;42.642;24.812;2022-11-14T01:01:28;4.20;;;1.57;;
5953;SDS011;3002;42.642;24.812;2022-11-14T01:04:03;6.27;;;2.03;;
5953;SDS011;3002;42.642;24.812;2022-11-14T01:06:53;7.00;;;2.03;;
5953;SDS011;3002;42.642;24.812;2022-11-14T01:09:18;6.77;;;2.00;;
5953;SDS011;3002;42.642;24.812;2022-11-14T01:11:45;5.63;;;1.90;;
5953;SDS011;3002;42.642;24.812;2022-11-14T01:14:11;4.90;;;1.80;;
5953;SDS011;3002;42.642;24.812;2022-11-14T01:16:36;7.50;;;2.50;;
5953;SDS011;3002;42.642;24.812;2022-11-14T01:19:02;5.03;;;2.17;;
5953;SDS011;3002;42.642;24.812;2022-11-14T01:21:28;3.78;;;1.55;;
5953;SDS011;3002;42.642;24.812;2022-11-14T01:23:53;8.07;;;2.23;;
5953;SDS011;3002;42.642;24.812;2022-11-14T01:26:19;4.67;;;1.90;;
5953;SDS011;3002;42.642;24.812;2022-11-14T01:28:44;7.20;;;2.50;;
5953;SDS011;3002;42.642;24.812;2022-11-14T01:31:14;4.90;;;2.20;;
5953;SDS011;3002;42.642;24.812;2022-11-14T01:33:42;9.15;;;2.58;;
5953;SDS011;3002;42.642;24.812;2022-11-14T01:36:08;6.65;;;2.13;;
5953;SDS011;3002;42.642;24.812;2022-11-14T01:38:35;7.72;;;2.08;;
5953;SDS011;3002;42.642;24.812;2022-11-14T01:41:01;8.27;;;2.80;;
5953;SDS011;3002;42.642;24.812;2022-11-14T01:43:37;7.63;;;3.00;;
5953;SDS011;3002;42.642;24.812;2022-11-14T01:51:25;5.70;;;1.95;;
5953;SDS011;3002;42.642;24.812;2022-11-14T01:54:06;6.97;;;2.10;;
5953;SDS011;3002;42.642;24.812;2022-11-14T01:56:39;10.35;;;2.88;;
5953;SDS011;3002;42.642;24.812;2022-11-14T01:59:10;9.57;;;2.80;;
5953;SDS011;3002;42.642;24.812;2022-11-14T02:01:47;10.73;;;2.90;;
5953;SDS011;3002;42.642;24.812;2022-11-14T02:04:17;6.70;;;2.40;;
5953;SDS011;3002;42.642;24.812;2022-11-14T02:06:46;8.20;;;2.42;;
5953;SDS011;3002;42.642;24.812;2022-11-14T02:09:13;8.07;;;2.57;;
5953;SDS011;3002;42.642;24.812;2022-11-14T02:11:39;12.40;;;4.20;;
5953;SDS011;3002;42.642;24.812;2022-11-14T02:14:09;9.73;;;2.90;;
5953;SDS011;3002;42.642;24.812;2022-11-14T02:16:35;7.95;;;2.28;;
5953;SDS011;3002;42.642;24.812;2022-11-14T02:19:01;9.80;;;2.70;;
5953;SDS011;3002;42.642;24.812;2022-11-14T02:21:29;6.63;;;2.03;;
5953;SDS011;3002;42.642;24.812;2022-11-14T02:23:54;16.03;;;2.40;;
5953;SDS011;3002;42.642;24.812;2022-11-14T02:26:20;7.40;;;2.70;;
5953;SDS011;3002;42.642;24.812;2022-11-14T02:28:46;10.93;;;2.88;;
5953;SDS011;3002;42.642;24.812;2022-11-14T02:31:12;7.33;;;2.37;;
5953;SDS011;3002;42.642;24.812;2022-11-14T02:33:42;8.40;;;2.90;;
5953;SDS011;3002;42.642;24.812;2022-11-14T02:36:08;5.75;;;1.88;;
5953;SDS011;3002;42.642;24.812;2022-11-14T02:38:34;6.32;;;2.30;;
5953;SDS011;3002;42.642;24.812;2022-11-14T02:41:00;5.90;;;2.25;;
5953;SDS011;3002;42.642;24.812;2022-11-14T02:43:26;6.17;;;2.27;;
5953;SDS011;3002;42.642;24.812;2022-11-14T02:45:51;11.17;;;3.53;;
5953;SDS011;3002;42.642;24.812;2022-11-14T02:48:17;7.13;;;3.03;;
5953;SDS011;3002;42.642;24.812;2022-11-14T02:50:43;7.93;;;2.83;;
5953;SDS011;3002;42.642;24.812;2022-11-14T02:53:08;8.30;;;3.30;;
5953;SDS011;3002;42.642;24.812;2022-11-14T02:55:34;9.77;;;3.33;;
5953;SDS011;3002;42.642;24.812;2022-11-14T02:58:01;7.88;;;2.25;;
5953;SDS011;3002;42.642;24.812;2022-11-14T03:00:27;7.00;;;2.73;;
5953;SDS011;3002;42.642;24.812;2022-11-14T03:02:52;8.30;;;2.67;;
5953;SDS011;3002;42.642;24.812;2022-11-14T03:05:19;6.83;;;2.30;;
5953;SDS011;3002;42.642;24.812;2022-11-14T03:07:53;8.48;;;2.67;;
5953;SDS011;3002;42.642;24.812;2022-11-14T03:10:20;6.00;;;2.17;;
5953;SDS011;3002;42.642;24.812;2022-11-14T03:12:55;9.52;;;2.83;;
5953;SDS011;3002;42.642;24.812;2022-11-14T03:15:21;8.82;;;2.58;;
5953;SDS011;3002;42.642;24.812;2022-11-14T03:17:48;6.28;;;2.22;;
5953;SDS011;3002;42.642;24.812;2022-11-14T03:20:14;7.60;;;2.45;;
5953;SDS011;3002;42.642;24.812;2022-11-14T03:22:40;6.57;;;2.05;;
5953;SDS011;3002;42.642;24.812;2022-11-14T03:25:06;7.37;;;2.20;;
5953;SDS011;3002;42.642;24.812;2022-11-14T03:30:26;9.57;;;2.75;;
5953;SDS011;3002;42.642;24.812;2022-11-14T03:33:00;8.18;;;2.60;;
5953;SDS011;3002;42.642;24.812;2022-11-14T03:35:27;5.50;;;2.08;;
5953;SDS011;3002;42.642;24.812;2022-11-14T03:38:06;8.27;;;2.80;;
5953;SDS011;3002;42.642;24.812;2022-11-14T03:40:38;6.78;;;2.75;;
5953;SDS011;3002;42.642;24.812;2022-11-14T03:43:05;9.73;;;2.95;;
5953;SDS011;3002;42.642;24.812;2022-11-14T03:45:37;6.97;;;2.10;;
5953;SDS011;3002;42.642;24.812;2022-11-14T03:48:07;8.52;;;2.95;;
5953;SDS011;3002;42.642;24.812;2022-11-14T03:50:33;6.50;;;2.23;;
5953;SDS011;3002;42.642;24.812;2022-11-14T03:53:13;6.22;;;2.42;;
5953;SDS011;3002;42.642;24.812;2022-11-14T03:55:39;6.20;;;1.87;;
5953;SDS011;3002;42.642;24.812;2022-11-14T03:58:07;7.80;;;2.63;;
5953;SDS011;3002;42.642;24.812;2022-11-14T04:00:33;5.13;;;2.00;;
5953;SDS011;3002;42.642;24.812;2022-11-14T04:03:13;8.57;;;2.58;;
5953;SDS011;3002;42.642;24.812;2022-11-14T04:05:38;7.37;;;2.13;;
5953;SDS011;3002;42.642;24.812;2022-11-14T04:08:04;6.37;;;2.60;;
5953;SDS011;3002;42.642;24.812;2022-11-14T04:10:30;6.47;;;2.22;;
5953;SDS011;3002;42.642;24.812;2022-11-14T04:12:56;11.43;;;3.50;;
5953;SDS011;3002;42.642;24.812;2022-11-14T04:15:22;9.00;;;2.92;;
5953;SDS011;3002;42.642;24.812;2022-11-14T04:17:50;6.70;;;2.43;;
5953;SDS011;3002;42.642;24.812;2022-11-14T04:20:18;6.75;;;2.20;;
5953;SDS011;3002;42.642;24.812;2022-11-14T04:22:44;8.20;;;2.97;;
5953;SDS011;3002;42.642;24.812;2022-11-14T04:25:10;6.47;;;2.30;;
5953;SDS011;3002;42.642;24.812;2022-11-14T04:27:36;20.27;;;4.33;;
5953;SDS011;3002;42.642;24.812;2022-11-14T04:30:02;8.00;;;2.70;;
5953;SDS011;3002;42.642;24.812;2022-11-14T04:32:28;8.40;;;2.40;;
5953;SDS011;3002;42.642;24.812;2022-11-14T04:34:54;8.43;;;2.80;;
5953;SDS011;3002;42.642;24.812;2022-11-14T04:37:19;7.17;;;2.53;;
5953;SDS011;3002;42.642;24.812;2022-11-14T04:39:45;6.60;;;2.50;;
5953;SDS011;3002;42.642;24.812;2022-11-14T04:42:10;10.60;;;3.17;;
5953;SDS011;3002;42.642;24.812;2022-11-14T04:44:36;10.13;;;2.53;;
5953;SDS011;3002;42.642;24.812;2022-11-14T04:47:01;7.73;;;2.83;;
5953;SDS011;3002;42.642;24.812;2022-11-14T04:49:27;6.90;;;2.47;;
5953;SDS011;3002;42.642;24.812;2022-11-14T04:51:52;5.70;;;2.47;;
5953;SDS011;3002;42.642;24.812;2022-11-14T04:54:18;5.40;;;1.97;;
5953;SDS011;3002;42.642;24.812;2022-11-14T04:56:43;4.50;;;2.40;;
5953;SDS011;3002;42.642;24.812;2022-11-14T04:59:08;18.93;;;6.63;;
5953;SDS011;3002;42.642;24.812;2022-11-14T05:01:34;7.80;;;3.80;;
5953;SDS011;3002;42.642;24.812;2022-11-14T05:04:00;3.43;;;1.53;;
5953;SDS011;3002;42.642;24.812;2022-11-14T05:06:25;13.63;;;4.80;;
5953;SDS011;3002;42.642;24.812;2022-11-14T05:08:55;22.88;;;9.65;;
5953;SDS011;3002;42.642;24.812;2022-11-14T05:11:24;10.60;;;3.65;;
5953;SDS011;3002;42.642;24.812;2022-11-14T05:13:51;5.35;;;1.90;;
5953;SDS011;3002;42.642;24.812;2022-11-14T05:16:19;4.60;;;2.05;;
5953;SDS011;3002;42.642;24.812;2022-11-14T05:18:51;4.45;;;2.22;;
5953;SDS011;3002;42.642;24.812;2022-11-14T05:21:19;4.50;;;1.95;;
5953;SDS011;3002;42.642;24.812;2022-11-14T05:23:45;5.55;;;2.40;;
5953;SDS011;3002;42.642;24.812;2022-11-14T05:26:13;3.33;;;1.20;;
5953;SDS011;3002;42.642;24.812;2022-11-14T05:28:42;6.82;;;2.85;;
5953;SDS011;3002;42.642;24.812;2022-11-14T05:31:10;4.93;;;2.17;;
5953;SDS011;3002;42.642;24.812;2022-11-14T05:33:57;4.50;;;2.75;;
5953;SDS011;3002;42.642;24.812;2022-11-14T05:36:28;9.18;;;2.47;;
5953;SDS011;3002;42.642;24.812;2022-11-14T05:38:54;10.57;;;3.30;;
5953;SDS011;3002;42.642;24.812;2022-11-14T05:41:19;5.93;;;2.13;;
5953;SDS011;3002;42.642;24.812;2022-11-14T05:43:45;4.87;;;2.23;;
5953;SDS011;3002;42.642;24.812;2022-11-14T05:46:12;23.57;;;3.10;;
5953;SDS011;3002;42.642;24.812;2022-11-14T05:48:39;6.53;;;2.60;;
5953;SDS011;3002;42.642;24.812;2022-11-14T05:51:05;8.27;;;3.10;;
5953;SDS011;3002;42.642;24.812;2022-11-14T05:53:31;7.80;;;3.80;;
5953;SDS011;3002;42.642;24.812;2022-11-14T05:56:01;6.27;;;2.37;;
5953;SDS011;3002;42.642;24.812;2022-11-14T05:58:33;9.10;;;3.30;;
5953;SDS011;3002;42.642;24.812;2022-11-14T06:03:32;4.90;;;2.07;;
5953;SDS011;3002;42.642;24.812;2022-11-14T06:06:02;8.27;;;4.20;;
5953;SDS011;3002;42.642;24.812;2022-11-14T06:08:35;9.00;;;3.37;;
5953;SDS011;3002;42.642;24.812;2022-11-14T06:11:05;8.60;;;2.77;;
5953;SDS011;3002;42.642;24.812;2022-11-14T06:13:43;20.30;;;4.53;;
5953;SDS011;3002;42.642;24.812;2022-11-14T06:16:35;8.20;;;3.37;;
5953;SDS011;3002;42.642;24.812;2022-11-14T06:19:00;6.93;;;2.13;;
5953;SDS011;3002;42.642;24.812;2022-11-14T06:21:26;7.83;;;2.50;;
5953;SDS011;3002;42.642;24.812;2022-11-14T06:23:51;8.50;;;2.90;;
5953;SDS011;3002;42.642;24.812;2022-11-14T06:26:21;13.37;;;3.70;;
5953;SDS011;3002;42.642;24.812;2022-11-14T06:28:49;8.47;;;3.07;;
5953;SDS011;3002;42.642;24.812;2022-11-14T06:31:16;7.23;;;2.00;;
5953;SDS011;3002;42.642;24.812;2022-11-14T06:33:42;12.40;;;4.80;;
5953;SDS011;3002;42.642;24.812;2022-11-14T06:36:10;9.00;;;2.87;;
5953;SDS011;3002;42.642;24.812;2022-11-14T06:38:36;20.53;;;6.20;;
5953;SDS011;3002;42.642;24.812;2022-11-14T06:41:10;13.53;;;4.60;;
5953;SDS011;3002;42.642;24.812;2022-11-14T06:43:41;15.30;;;5.33;;
5953;SDS011;3002;42.642;24.812;2022-11-14T06:46:08;20.63;;;6.33;;
5953;SDS011;3002;42.642;24.812;2022-11-14T06:48:35;16.47;;;5.23;;
5953;SDS011;3002;42.642;24.812;2022-11-14T06:51:01;22.87;;;8.43;;
5953;SDS011;3002;42.642;24.812;2022-11-14T06:53:30;25.30;;;8.90;;
5953;SDS011;3002;42.642;24.812;2022-11-14T06:56:00;23.80;;;9.67;;
5953;SDS011;3002;42.642;24.812;2022-11-14T06:58:33;17.53;;;7.47;;
5953;SDS011;3002;42.642;24.812;2022-11-14T07:01:21;14.00;;;5.30;;
5953;SDS011;3002;42.642;24.812;2022-11-14T07:03:50;9.00;;;4.00;;
5953;SDS011;3002;42.642;24.812;2022-11-14T07:06:17;11.30;;;5.00;;
5953;SDS011;3002;42.642;24.812;2022-11-14T07:08:44;15.87;;;6.77;;
5953;SDS011;3002;42.642;24.812;2022-11-14T07:11:14;14.80;;;6.00;;
5953;SDS011;3002;42.642;24.812;2022-11-14T07:13:47;15.60;;;5.17;;
5953;SDS011;3002;42.642;24.812;2022-11-14T07:16:14;12.93;;;3.97;;
5953;SDS011;3002;42.642;24.812;2022-11-14T07:18:39;20.87;;;8.23;;
5953;SDS011;3002;42.642;24.812;2022-11-14T07:21:05;13.27;;;4.73;;
5953;SDS011;3002;42.642;24.812;2022-11-14T07:23:31;14.50;;;4.40;;
5953;SDS011;3002;42.642;24.812;2022-11-14T07:26:01;14.97;;;5.37;;
5953;SDS011;3002;42.642;24.812;2022-11-14T07:28:31;23.80;;;7.80;;
5953;SDS011;3002;42.642;24.812;2022-11-14T07:30:57;15.30;;;4.03;;
5953;SDS011;3002;42.642;24.812;2022-11-14T07:33:23;11.53;;;4.50;;
5953;SDS011;3002;42.642;24.812;2022-11-14T07:35:49;12.90;;;4.83;;
5953;SDS011;3002;42.642;24.812;2022-11-14T07:38:15;12.77;;;4.67;;
5953;SDS011;3002;42.642;24.812;2022-11-14T07:40:40;13.93;;;4.80;;
5953;SDS011;3002;42.642;24.812;2022-11-14T07:43:06;8.57;;;3.53;;
5953;SDS011;3002;42.642;24.812;2022-11-14T07:45:31;9.13;;;3.10;;
5953;SDS011;3002;42.642;24.812;2022-11-14T07:47:57;11.67;;;4.70;;
5953;SDS011;3002;42.642;24.812;2022-11-14T07:50:25;13.70;;;4.80;;
5953;SDS011;3002;42.642;24.812;2022-11-14T07:52:53;11.67;;;4.67;;
5953;SDS011;3002;42.642;24.812;2022-11-14T07:55:19;12.47;;;5.47;;
5953;SDS011;3002;42.642;24.812;2022-11-14T07:57:45;22.67;;;6.63;;
5953;SDS011;3002;42.642;24.812;2022-11-14T08:00:11;12.37;;;4.60;;
5953;SDS011;3002;42.642;24.812;2022-11-14T08:02:37;9.23;;;4.20;;
5953;SDS011;3002;42.642;24.812;2022-11-14T08:05:03;12.40;;;4.03;;
5953;SDS011;3002;42.642;24.812;2022-11-14T08:07:30;11.93;;;4.53;;
5953;SDS011;3002;42.642;24.812;2022-11-14T08:09:56;12.30;;;4.70;;
5953;SDS011;3002;42.642;24.812;2022-11-14T08:12:21;11.80;;;4.00;;
5953;SDS011;3002;42.642;24.812;2022-11-14T08:14:47;16.27;;;4.93;;
5953;SDS011;3002;42.642;24.812;2022-11-14T08:17:13;12.63;;;3.90;;
5953;SDS011;3002;42.642;24.812;2022-11-14T08:19:40;17.47;;;4.30;;
5953;SDS011;3002;42.642;24.812;2022-11-14T08:22:14;7.80;;;2.60;;
5953;SDS011;3002;42.642;24.812;2022-11-14T08:24:41;11.77;;;2.70;;
5953;SDS011;3002;42.642;24.812;2022-11-14T08:27:06;11.93;;;4.60;;
5953;SDS011;3002;42.642;24.812;2022-11-14T08:29:38;11.97;;;4.07;;
5953;SDS011;3002;42.642;24.812;2022-11-14T08:32:04;12.50;;;4.30;;
5953;SDS011;3002;42.642;24.812;2022-11-14T08:34:30;10.47;;;4.60;;
5953;SDS011;3002;42.642;24.812;2022-11-14T08:37:01;8.80;;;3.00;;
5953;SDS011;3002;42.642;24.812;2022-11-14T08:39:29;12.17;;;4.13;;
5953;SDS011;3002;42.642;24.812;2022-11-14T08:41:58;16.80;;;3.73;;
5953;SDS011;3002;42.642;24.812;2022-11-14T08:44:39;12.83;;;4.07;;
5953;SDS011;3002;42.642;24.812;2022-11-14T08:47:06;12.33;;;3.77;;
5953;SDS011;3002;42.642;24.812;2022-11-14T08:51:57;7.95;;;2.78;;
5953;SDS011;3002;42.642;24.812;2022-11-14T08:54:22;11.70;;;3.97;;
5953;SDS011;3002;42.642;24.812;2022-11-14T08:56:48;9.17;;;2.87;;
5953;SDS011;3002;42.642;24.812;2022-11-14T08:59:13;8.60;;;2.50;;
5953;SDS011;3002;42.642;24.812;2022-11-14T09:01:39;11.03;;;3.87;;
5953;SDS011;3002;42.642;24.812;2022-11-14T09:04:04;10.77;;;3.17;;
5953;SDS011;3002;42.642;24.812;2022-11-14T09:06:33;13.43;;;3.40;;
5953;SDS011;3002;42.642;24.812;2022-11-14T09:08:58;11.70;;;2.93;;
5953;SDS011;3002;42.642;24.812;2022-11-14T09:11:24;7.60;;;2.17;;
5953;SDS011;3002;42.642;24.812;2022-11-14T09:13:50;9.70;;;3.40;;
5953;SDS011;3002;42.642;24.812;2022-11-14T09:16:15;10.80;;;3.53;;
5953;SDS011;3002;42.642;24.812;2022-11-14T09:18:41;8.33;;;2.50;;
5953;SDS011;3002;42.642;24.812;2022-11-14T09:21:07;12.57;;;4.53;;
5953;SDS011;3002;42.642;24.812;2022-11-14T09:23:33;12.27;;;4.10;;
5953;SDS011;3002;42.642;24.812;2022-11-14T09:26:06;8.77;;;3.03;;
5953;SDS011;3002;42.642;24.812;2022-11-14T09:28:33;14.77;;;3.00;;
5953;SDS011;3002;42.642;24.812;2022-11-14T09:30:59;11.33;;;3.43;;
5953;SDS011;3002;42.642;24.812;2022-11-14T09:33:29;9.63;;;3.40;;
5953;SDS011;3002;42.642;24.812;2022-11-14T09:35:58;8.07;;;3.10;;
5953;SDS011;3002;42.642;24.812;2022-11-14T09:38:25;14.03;;;4.43;;
5953;SDS011;3002;42.642;24.812;2022-11-14T09:46:20;14.63;;;4.47;;
5953;SDS011;3002;42.642;24.812;2022-11-14T09:48:56;8.53;;;3.10;;
5953;SDS011;3002;42.642;24.812;2022-11-14T09:51:29;9.40;;;2.70;;
5953;SDS011;3002;42.642;24.812;2022-11-14T09:56:49;10.33;;;3.20;;
5953;SDS011;3002;42.642;24.812;2022-11-14T09:59:15;16.73;;;4.13;;
5953;SDS011;3002;42.642;24.812;2022-11-14T10:04:38;15.93;;;4.87;;
5953;SDS011;3002;42.642;24.812;2022-11-14T10:07:33;11.30;;;3.53;;
5953;SDS011;3002;42.642;24.812;2022-11-14T10:12:54;17.33;;;5.10;;
5953;SDS011;3002;42.642;24.812;2022-11-14T10:18:17;17.10;;;4.23;;
5953;SDS011;3002;42.642;24.812;2022-11-14T10:20:49;16.47;;;5.00;;
5953;SDS011;3002;42.642;24.812;2022-11-14T10:28:45;10.83;;;3.23;;
5953;SDS011;3002;42.642;24.812;2022-11-14T10:42:09;9.30;;;2.87;;
5953;SDS011;3002;42.642;24.812;2022-11-14T10:45:03;12.53;;;2.80;;
5953;SDS011;3002;42.642;24.812;2022-11-14T10:47:34;8.63;;;3.30;;
5953;SDS011;3002;42.642;24.812;2022-11-14T10:50:13;9.73;;;3.40;;
5953;SDS011;3002;42.642;24.812;2022-11-14T10:52:47;16.60;;;4.17;;
5953;SDS011;3002;42.642;24.812;2022-11-14T10:55:18;9.90;;;3.10;;
5953;SDS011;3002;42.642;24.812;2022-11-14T10:57:45;11.00;;;3.67;;
5953;SDS011;3002;42.642;24.812;2022-11-14T11:00:11;11.27;;;3.50;;
5953;SDS011;3002;42.642;24.812;2022-11-14T11:02:49;12.60;;;4.30;;
5953;SDS011;3002;42.642;24.812;2022-11-14T11:05:21;10.57;;;3.67;;
5953;SDS011;3002;42.642;24.812;2022-11-14T11:07:49;14.50;;;3.67;;
5953;SDS011;3002;42.642;24.812;2022-11-14T11:10:34;13.07;;;4.10;;
5953;SDS011;3002;42.642;24.812;2022-11-14T11:13:30;11.33;;;3.37;;
5953;SDS011;3002;42.642;24.812;2022-11-14T11:16:01;12.80;;;4.07;;
5953;SDS011;3002;42.642;24.812;2022-11-14T11:18:31;11.50;;;3.17;;
5953;SDS011;3002;42.642;24.812;2022-11-14T11:21:09;13.37;;;3.83;;
5953;SDS011;3002;42.642;24.812;2022-11-14T11:23:55;12.20;;;3.20;;
5953;SDS011;3002;42.642;24.812;2022-11-14T11:26:26;13.30;;;3.13;;
5953;SDS011;3002;42.642;24.812;2022-11-14T11:29:15;9.97;;;3.27;;
5953;SDS011;3002;42.642;24.812;2022-11-14T11:31:55;12.53;;;3.00;;
5953;SDS011;3002;42.642;24.812;2022-11-14T11:34:32;13.53;;;3.00;;
5953;SDS011;3002;42.642;24.812;2022-11-14T11:39:38;6.50;;;2.30;;
5953;SDS011;3002;42.642;24.812;2022-11-14T11:42:24;11.23;;;3.50;;
5953;SDS011;3002;42.642;24.812;2022-11-14T11:44:59;11.20;;;3.67;;
5953;SDS011;3002;42.642;24.812;2022-11-14T11:47:28;10.13;;;3.37;;
5953;SDS011;3002;42.642;24.812;2022-11-14T11:49:57;9.23;;;3.70;;
5953;SDS011;3002;42.642;24.812;2022-11-14T11:57:22;9.73;;;2.40;;
5953;SDS011;3002;42.642;24.812;2022-11-14T12:00:04;9.57;;;2.63;;
5953;SDS011;3002;42.642;24.812;2022-11-14T12:02:39;8.63;;;2.97;;
5953;SDS011;3002;42.642;24.812;2022-11-14T12:05:18;12.10;;;3.50;;
5953;SDS011;3002;42.642;24.812;2022-11-14T12:08:13;10.50;;;3.43;;
5953;SDS011;3002;42.642;24.812;2022-11-14T12:10:41;10.33;;;2.50;;
5953;SDS011;3002;42.642;24.812;2022-11-14T12:16:23;8.17;;;3.00;;
5953;SDS011;3002;42.642;24.812;2022-11-14T12:22:00;7.80;;;2.80;;
5953;SDS011;3002;42.642;24.812;2022-11-14T12:24:53;12.13;;;3.60;;
5953;SDS011;3002;42.642;24.812;2022-11-14T12:30:10;8.17;;;2.77;;
5953;SDS011;3002;42.642;24.812;2022-11-14T12:32:49;15.40;;;3.73;;
5953;SDS011;3002;42.642;24.812;2022-11-14T12:35:25;9.50;;;3.47;;
5953;SDS011;3002;42.642;24.812;2022-11-14T12:37:54;14.03;;;3.70;;
5953;SDS011;3002;42.642;24.812;2022-11-14T12:42:53;9.27;;;4.30;;
5953;SDS011;3002;42.642;24.812;2022-11-14T12:48:20;13.07;;;4.93;;
5953;SDS011;3002;42.642;24.812;2022-11-14T12:50:55;11.07;;;4.50;;
5953;SDS011;3002;42.642;24.812;2022-11-14T13:15:20;6.87;;;3.20;;
5953;SDS011;3002;42.642;24.812;2022-11-14T13:18:26;14.27;;;4.93;;
5953;SDS011;3002;42.642;24.812;2022-11-14T13:24:13;8.50;;;3.17;;
5953;SDS011;3002;42.642;24.812;2022-11-14T13:26:41;15.43;;;5.53;;
5953;SDS011;3002;42.642;24.812;2022-11-14T13:29:57;10.67;;;3.73;;
5953;SDS011;3002;42.642;24.812;2022-11-14T13:32:02;6.80;;;2.57;;
5953;SDS011;3002;42.642;24.812;2022-11-14T13:34:32;17.07;;;6.20;;
5953;SDS011;3002;42.642;24.812;2022-11-14T13:37:09;8.37;;;3.00;;
5953;SDS011;3002;42.642;24.812;2022-11-14T13:42:33;9.80;;;3.70;;
5953;SDS011;3002;42.642;24.812;2022-11-14T13:51:16;18.03;;;6.07;;
5953;SDS011;3002;42.642;24.812;2022-11-14T13:53:43;20.07;;;5.23;;
5953;SDS011;3002;42.642;24.812;2022-11-14T13:56:23;10.40;;;2.83;;
5953;SDS011;3002;42.642;24.812;2022-11-14T14:04:07;26.63;;;7.57;;
5953;SDS011;3002;42.642;24.812;2022-11-14T14:12:30;17.27;;;6.27;;
5953;SDS011;3002;42.642;24.812;2022-11-14T14:15:13;14.73;;;4.03;;
5953;SDS011;3002;42.642;24.812;2022-11-14T14:18:07;17.80;;;6.33;;
5953;SDS011;3002;42.642;24.812;2022-11-14T14:20:53;17.43;;;5.20;;
5953;SDS011;3002;42.642;24.812;2022-11-14T14:23:44;16.80;;;5.43;;
5953;SDS011;3002;42.642;24.812;2022-11-14T14:32:12;20.27;;;5.30;;
5953;SDS011;3002;42.642;24.812;2022-11-14T14:34:40;18.63;;;5.53;;
5953;SDS011;3002;42.642;24.812;2022-11-14T14:37:19;28.47;;;11.03;;
5953;SDS011;3002;42.642;24.812;2022-11-14T14:40:00;20.97;;;6.30;;
5953;SDS011;3002;42.642;24.812;2022-11-14T14:42:29;15.90;;;5.30;;
5953;SDS011;3002;42.642;24.812;2022-11-14T14:45:02;17.20;;;6.30;;
5953;SDS011;3002;42.642;24.812;2022-11-14T14:47:39;20.73;;;8.90;;
5953;SDS011;3002;42.642;24.812;2022-11-14T14:50:29;47.27;;;21.63;;
5953;SDS011;3002;42.642;24.812;2022-11-14T14:52:58;20.87;;;6.27;;
5953;SDS011;3002;42.642;24.812;2022-11-14T14:55:29;20.47;;;7.03;;
5953;SDS011;3002;42.642;24.812;2022-11-14T14:58:13;28.43;;;10.60;;
5953;SDS011;3002;42.642;24.812;2022-11-14T15:03:56;15.87;;;6.40;;
5953;SDS011;3002;42.642;24.812;2022-11-14T15:08:56;22.40;;;10.63;;
5953;SDS011;3002;42.642;24.812;2022-11-14T15:11:25;15.27;;;5.73;;
5953;SDS011;3002;42.642;24.812;2022-11-14T15:13:59;16.13;;;6.23;;
5953;SDS011;3002;42.642;24.812;2022-11-14T15:16:26;34.77;;;8.10;;
5953;SDS011;3002;42.642;24.812;2022-11-14T15:18:53;24.47;;;7.70;;
5953;SDS011;3002;42.642;24.812;2022-11-14T15:21:25;44.77;;;10.90;;
5953;SDS011;3002;42.642;24.812;2022-11-14T15:26:27;16.43;;;7.03;;
5953;SDS011;3002;42.642;24.812;2022-11-14T15:31:42;30.80;;;9.03;;
5953;SDS011;3002;42.642;24.812;2022-11-14T15:34:35;39.33;;;9.27;;
5953;SDS011;3002;42.642;24.812;2022-11-14T15:39:37;25.40;;;7.80;;
5953;SDS011;3002;42.642;24.812;2022-11-14T15:42:13;35.57;;;10.27;;
5953;SDS011;3002;42.642;24.812;2022-11-14T15:44:54;14.00;;;5.13;;
5953;SDS011;3002;42.642;24.812;2022-11-14T15:47:22;69.77;;;17.13;;
5953;SDS011;3002;42.642;24.812;2022-11-14T15:52:36;34.63;;;8.53;;
5953;SDS011;3002;42.642;24.812;2022-11-14T15:55:13;44.63;;;12.20;;
5953;SDS011;3002;42.642;24.812;2022-11-14T15:57:43;39.10;;;10.50;;
5953;SDS011;3002;42.642;24.812;2022-11-14T16:00:12;68.57;;;14.70;;
5953;SDS011;3002;42.642;24.812;2022-11-14T16:05:26;31.27;;;8.53;;
5953;SDS011;3002;42.642;24.812;2022-11-14T16:07:55;36.70;;;10.73;;
5953;SDS011;3002;42.642;24.812;2022-11-14T16:10:40;37.87;;;11.97;;
5953;SDS011;3002;42.642;24.812;2022-11-14T16:13:07;27.07;;;9.00;;
5953;SDS011;3002;42.642;24.812;2022-11-14T16:15:33;24.07;;;7.80;;
5953;SDS011;3002;42.642;24.812;2022-11-14T16:17:59;15.73;;;7.37;;
5953;SDS011;3002;42.642;24.812;2022-11-14T16:20:25;21.73;;;9.67;;
5953;SDS011;3002;42.642;24.812;2022-11-14T16:22:53;14.60;;;6.30;;
5953;SDS011;3002;42.642;24.812;2022-11-14T16:25:22;15.43;;;6.70;;
5953;SDS011;3002;42.642;24.812;2022-11-14T16:27:49;18.43;;;7.07;;
5953;SDS011;3002;42.642;24.812;2022-11-14T16:30:18;12.53;;;5.80;;
5953;SDS011;3002;42.642;24.812;2022-11-14T16:32:46;15.87;;;4.70;;
5953;SDS011;3002;42.642;24.812;2022-11-14T16:35:13;17.57;;;6.70;;
5953;SDS011;3002;42.642;24.812;2022-11-14T16:37:41;20.90;;;7.90;;
5953;SDS011;3002;42.642;24.812;2022-11-14T16:40:18;16.30;;;7.73;;
5953;SDS011;3002;42.642;24.812;2022-11-14T16:42:49;19.67;;;7.47;;
5953;SDS011;3002;42.642;24.812;2022-11-14T16:45:16;19.27;;;7.10;;
5953;SDS011;3002;42.642;24.812;2022-11-14T16:47:45;14.63;;;5.80;;
5953;SDS011;3002;42.642;24.812;2022-11-14T16:50:11;14.53;;;5.83;;
5953;SDS011;3002;42.642;24.812;2022-11-14T16:52:37;11.97;;;5.00;;
5953;SDS011;3002;42.642;24.812;2022-11-14T16:55:04;16.10;;;6.37;;
5953;SDS011;3002;42.642;24.812;2022-11-14T16:59:56;12.65;;;5.88;;
5953;SDS011;3002;42.642;24.812;2022-11-14T17:02:22;25.17;;;8.10;;
5953;SDS011;3002;42.642;24.812;2022-11-14T17:04:48;39.23;;;15.27;;
5953;SDS011;3002;42.642;24.812;2022-11-14T17:07:17;17.70;;;7.43;;
5953;SDS011;3002;42.642;24.812;2022-11-14T17:09:42;20.70;;;6.60;;
5953;SDS011;3002;42.642;24.812;2022-11-14T17:12:08;14.70;;;5.00;;
5953;SDS011;3002;42.642;24.812;2022-11-14T17:14:34;22.07;;;7.20;;
5953;SDS011;3002;42.642;24.812;2022-11-14T17:17:08;9.37;;;4.17;;
5953;SDS011;3002;42.642;24.812;2022-11-14T17:22:08;14.97;;;5.37;;
5953;SDS011;3002;42.642;24.812;2022-11-14T17:24:40;14.13;;;6.20;;
5953;SDS011;3002;42.642;24.812;2022-11-14T17:27:06;14.20;;;7.27;;
5953;SDS011;3002;42.642;24.812;2022-11-14T17:29:45;13.17;;;6.60;;
5953;SDS011;3002;42.642;24.812;2022-11-14T17:32:12;22.97;;;8.07;;